createdAt,value
2022-10-29T00:00:55.378Z,99110.75
2022-10-29T00:03:57.219Z,99108.13
2022-10-29T00:06:59.065Z,99103.69
2022-10-29T00:10:00.830Z,99109.66
2022-10-29T00:13:03.459Z,99107.16
2022-10-29T00:17:15.948Z,99096.06
2022-10-29T00:20:20.961Z,99101.34
2022-10-29T00:23:22.652Z,99101.19
2022-10-29T00:26:25.408Z,99111.44
2022-10-29T00:29:27.132Z,99095.50
2022-10-29T00:32:28.896Z,99109.50
2022-10-29T00:35:30.618Z,99105.47
2022-10-29T00:38:33.221Z,99117.91
2022-10-29T00:41:34.926Z,99108.94
2022-10-29T00:44:38.966Z,99107.28
2022-10-29T00:47:40.746Z,99099.81
2022-10-29T00:50:43.452Z,99097.16
2022-10-29T00:54:06.856Z,99085.38
2022-10-29T00:57:13.906Z,99088.16
2022-10-29T01:00:17.099Z,99089.25
2022-10-29T01:03:18.828Z,99095.88
2022-10-29T01:06:20.916Z,99098.94
2022-10-29T01:09:22.599Z,99095.88
2022-10-29T01:12:59.303Z,99089.78
2022-10-29T01:16:19.803Z,99083.53
2022-10-29T01:20:15.958Z,99080.34
2022-10-29T01:23:55.090Z,99088.63
2022-10-29T01:27:17.046Z,99082.75
2022-10-29T01:30:37.417Z,99083.00
2022-10-29T01:33:44.822Z,99080.78
2022-10-29T01:37:05.402Z,99080.78
2022-10-29T01:40:26.930Z,99081.13
2022-10-29T01:43:34.840Z,99081.72
2022-10-29T01:47:03.383Z,99073.91
2022-10-29T01:50:08.360Z,99068.97
2022-10-29T01:53:10.456Z,99058.53
2022-10-29T01:56:12.137Z,99054.78
2022-10-29T01:59:23.061Z,99044.81
2022-10-29T02:02:35.577Z,99040.66
2022-10-29T02:05:46.294Z,99036.25
2022-10-29T02:08:47.919Z,99032.91
2022-10-29T02:12:24.886Z,99036.81
2022-10-29T02:15:37.513Z,99045.44
2022-10-29T02:18:46.375Z,99045.72
2022-10-29T02:21:50.769Z,99039.63
2022-10-29T02:24:52.466Z,99037.09
2022-10-29T02:27:54.294Z,99029.06
2022-10-29T02:30:56.229Z,99037.09
2022-10-29T02:33:57.971Z,99035.28
2022-10-29T02:36:59.617Z,99043.63
2022-10-29T02:40:01.273Z,99051.50
2022-10-29T02:43:02.999Z,99048.97
2022-10-29T02:46:18.809Z,99039.88
2022-10-29T02:49:20.528Z,99039.69
2022-10-29T02:52:22.157Z,99037.91
2022-10-29T02:55:23.849Z,99040.69
2022-10-29T02:58:25.505Z,99052.19
2022-10-29T03:01:27.394Z,99049.78
2022-10-29T03:04:29.249Z,99044.31
2022-10-29T03:07:35.321Z,99038.06
2022-10-29T03:10:37.126Z,99044.88
2022-10-29T03:13:39.283Z,99037.91
2022-10-29T03:16:40.987Z,99029.53
2022-10-29T03:19:42.634Z,99040.72
2022-10-29T03:22:44.510Z,99047.94
2022-10-29T03:25:55.559Z,99050.59
2022-10-29T03:28:57.971Z,99055.19
2022-10-29T03:31:59.652Z,99048.22
2022-10-29T03:35:01.352Z,99051.59
2022-10-29T03:38:03.100Z,99058.44
2022-10-29T03:41:10.319Z,99055.00
2022-10-29T03:44:12.112Z,99051.75
2022-10-29T03:47:13.855Z,99038.41
2022-10-29T03:50:15.888Z,99039.88
2022-10-29T03:53:17.667Z,99041.63
2022-10-29T03:56:19.387Z,99051.31
2022-10-29T03:59:21.138Z,99047.50
2022-10-29T04:02:23.597Z,99045.72
2022-10-29T04:05:25.394Z,99043.94
2022-10-29T04:08:27.832Z,99029.38
2022-10-29T04:11:29.584Z,99040.06
2022-10-29T04:14:31.350Z,99036.44
2022-10-29T04:17:33.107Z,99032.84
2022-10-29T04:21:26.591Z,99030.34
2022-10-29T04:30:40.675Z,99048.00
2022-10-29T04:33:42.303Z,99049.47
2022-10-29T04:36:43.999Z,99054.88
2022-10-29T04:39:45.699Z,99035.53
2022-10-29T04:42:47.385Z,99031.84
2022-10-29T04:45:53.356Z,99023.66
2022-10-29T04:48:55.166Z,99026.66
2022-10-29T04:51:56.948Z,99014.63
2022-10-29T04:54:58.575Z,99024.59
2022-10-29T04:58:00.268Z,99032.50
2022-10-29T05:01:03.047Z,99030.34
2022-10-29T05:04:05.107Z,99029.44
2022-10-29T05:07:06.969Z,99036.47
2022-10-29T05:10:08.964Z,99028.69
2022-10-29T05:13:12.136Z,99028.97
2022-10-29T05:16:13.950Z,99025.63
2022-10-29T05:19:15.760Z,99030.56
2022-10-29T05:22:17.564Z,99030.56
2022-10-29T05:25:19.342Z,99018.75
2022-10-29T05:28:22.641Z,99001.28
2022-10-29T05:31:24.543Z,98992.34
2022-10-29T05:34:26.616Z,98998.66
2022-10-29T05:37:28.457Z,99045.41
2022-10-29T05:40:30.702Z,99040.03
2022-10-29T05:43:32.605Z,99038.91
2022-10-29T05:46:34.613Z,99056.13
2022-10-29T05:49:36.554Z,99046.31
2022-10-29T05:52:38.970Z,99044.41
2022-10-29T05:55:41.671Z,99053.28
2022-10-29T05:58:43.526Z,99050.44
2022-10-29T06:01:45.610Z,99045.69
2022-10-29T06:04:47.750Z,99044.34
2022-10-29T06:08:00.653Z,99051.06
2022-10-29T06:11:03.785Z,99052.22
2022-10-29T06:14:05.800Z,99048.59
2022-10-29T06:17:07.866Z,99044.59
2022-10-29T06:20:10.779Z,99041.59
2022-10-29T06:23:12.648Z,99039.41
2022-10-29T06:26:14.471Z,99038.66
2022-10-29T06:29:16.308Z,99038.13
2022-10-29T06:32:18.225Z,99043.81
2022-10-29T06:35:20.236Z,99049.53
2022-10-29T06:38:22.243Z,99058.28
2022-10-29T06:41:27.301Z,99054.78
2022-10-29T06:44:29.216Z,99051.53
2022-10-29T06:47:31.628Z,99047.69
2022-10-29T06:50:33.945Z,99051.19
2022-10-29T06:53:35.850Z,99045.16
2022-10-29T06:56:37.823Z,99058.56
2022-10-29T06:59:39.646Z,99054.84
2022-10-29T07:02:41.493Z,99058.50
2022-10-29T07:05:43.662Z,99055.66
2022-10-29T07:08:45.558Z,99064.63
2022-10-29T07:11:48.095Z,99047.41
2022-10-29T07:14:49.912Z,99041.31
2022-10-29T07:18:06.723Z,99041.09
2022-10-29T07:21:09.866Z,99040.03
2022-10-29T07:24:11.692Z,99040.59
2022-10-29T07:27:13.538Z,99036.72
2022-10-29T07:30:16.101Z,99042.44
2022-10-29T07:33:18.160Z,99038.22
2022-10-29T07:36:20.088Z,99035.38
2022-10-29T07:39:22.807Z,99040.06
2022-10-29T07:42:25.121Z,99044.22
2022-10-29T07:45:27.604Z,99057.72
2022-10-29T07:48:30.359Z,99054.72
2022-10-29T07:51:32.469Z,99058.25
2022-10-29T07:54:34.383Z,99047.63
2022-10-29T07:57:36.544Z,99064.78
2022-10-29T08:00:40.657Z,99055.97
2022-10-29T08:03:42.618Z,99056.28
2022-10-29T08:06:44.677Z,99050.50
2022-10-29T08:09:46.661Z,99044.41
2022-10-29T08:12:52.714Z,99047.25
2022-10-29T08:15:55.373Z,99051.75
2022-10-29T08:18:57.384Z,99046.63
2022-10-29T08:21:59.395Z,99049.13
2022-10-29T08:25:01.236Z,99049.25
2022-10-29T08:28:04.952Z,99049.72
2022-10-29T08:31:07.155Z,99054.41
2022-10-29T08:34:11.197Z,99059.28
2022-10-29T08:37:13.337Z,99058.66
2022-10-29T08:40:27.679Z,99053.16
2022-10-29T08:43:35.691Z,99063.00
2022-10-29T08:46:42.675Z,99052.06
2022-10-29T08:50:10.127Z,99055.09
2022-10-29T08:53:23.239Z,99052.06
2022-10-29T08:56:30.055Z,99044.19
2022-10-29T08:59:37.566Z,99043.38
2022-10-29T09:02:40.456Z,99043.88
2022-10-29T09:06:11.648Z,99050.94
2022-10-29T09:09:16.533Z,99055.53
2022-10-29T09:13:00.360Z,99048.78
2022-10-29T09:16:27.099Z,99049.94
2022-10-29T09:19:33.720Z,99055.31
2022-10-29T09:22:47.890Z,99047.28
2022-10-29T09:25:56.765Z,99056.19
2022-10-29T09:29:34.217Z,99055.38
2022-10-29T09:32:43.588Z,99051.78
2022-10-29T09:35:48.251Z,99051.50
2022-10-29T09:39:03.253Z,99048.34
2022-10-29T09:42:13.325Z,99040.59
2022-10-29T09:45:17.945Z,99049.03
2022-10-29T09:48:25.830Z,99043.91
2022-10-29T09:51:50.671Z,99051.78
2022-10-29T09:54:54.005Z,99035.44
2022-10-29T09:57:57.747Z,99035.13
2022-10-29T10:00:59.773Z,99036.34
2022-10-29T10:04:11.764Z,99033.88
2022-10-29T10:07:21.433Z,99036.53
2022-10-29T10:10:24.508Z,99040.13
2022-10-29T10:13:32.017Z,99031.19
2022-10-29T10:16:34.341Z,99022.84
2022-10-29T10:19:43.177Z,99026.50
2022-10-29T10:22:48.371Z,99032.59
2022-10-29T10:25:52.100Z,99023.44
2022-10-29T10:29:14.699Z,99024.81
2022-10-29T10:32:17.785Z,99022.34
2022-10-29T10:35:28.544Z,99017.03
2022-10-29T10:38:41.117Z,99007.00
2022-10-29T10:41:43.403Z,99005.91
2022-10-29T10:45:14.608Z,99004.56
2022-10-29T10:48:18.241Z,99008.31
2022-10-29T10:51:25.852Z,99001.69
2022-10-29T10:54:42.411Z,98997.56
2022-10-29T10:57:51.234Z,98991.44
2022-10-29T11:00:59.888Z,98992.91
2022-10-29T11:04:14.097Z,99005.19
2022-10-29T11:07:17.931Z,98987.38
2022-10-29T11:10:21.457Z,98979.63
2022-10-29T11:13:25.756Z,98965.06
2022-10-29T11:16:46.412Z,98962.31
2022-10-29T11:19:52.311Z,98963.94
2022-10-29T11:23:12.835Z,98960.09
2022-10-29T11:26:22.599Z,98967.69
2022-10-29T11:29:37.012Z,98972.19
2022-10-29T11:33:03.769Z,98980.66
2022-10-29T11:36:20.595Z,98977.53
2022-10-29T11:39:32.518Z,98977.34
2022-10-29T11:42:36.816Z,98983.25
2022-10-29T11:45:54.701Z,98975.88
2022-10-29T11:49:06.787Z,98984.72
2022-10-29T11:52:11.871Z,98968.78
2022-10-29T11:55:20.452Z,98978.78
2022-10-29T11:58:34.285Z,98971.56
2022-10-29T12:02:00.301Z,98974.72
2022-10-29T12:05:37.659Z,98965.16
2022-10-29T12:08:43.034Z,98958.41
2022-10-29T12:11:51.462Z,98956.63
2022-10-29T12:15:30.586Z,98945.47
2022-10-29T12:18:45.279Z,98939.19
2022-10-29T12:21:55.528Z,98924.53
2022-10-29T12:25:15.413Z,98917.31
2022-10-29T12:28:39.165Z,98925.91
2022-10-29T12:31:56.119Z,98924.63
2022-10-29T12:35:18.658Z,98920.22
2022-10-29T12:38:43.205Z,98914.31
2022-10-29T12:41:48.881Z,98919.72
2022-10-29T12:45:07.178Z,98919.47
2022-10-29T12:48:15.225Z,98914.97
2022-10-29T12:51:28.300Z,98916.91
2022-10-29T12:54:39.353Z,98908.84
2022-10-29T12:57:41.444Z,98903.63
2022-10-29T13:00:48.204Z,98904.94
2022-10-29T13:03:56.586Z,98904.63
2022-10-29T13:07:05.713Z,98894.53
2022-10-29T13:10:28.701Z,98896.56
2022-10-29T13:13:39.055Z,98897.06
2022-10-29T13:16:41.246Z,98892.84
2022-10-29T13:20:01.459Z,98896.66
2022-10-29T13:23:11.204Z,98886.47
2022-10-29T13:26:13.387Z,98879.56
2022-10-29T13:29:42.325Z,98872.09
2022-10-29T13:32:44.659Z,98871.16
2022-10-29T13:35:52.646Z,98871.09
2022-10-29T13:39:05.645Z,98867.97
2022-10-29T13:42:11.985Z,98872.22
2022-10-29T13:45:14.267Z,98872.47
2022-10-29T13:48:35.605Z,98878.47
2022-10-29T13:51:43.320Z,98870.03
2022-10-29T13:55:01.782Z,98850.91
2022-10-29T13:58:03.825Z,98850.84
2022-10-29T14:01:09.840Z,98842.97
2022-10-29T14:04:22.568Z,98849.06
2022-10-29T14:07:31.369Z,98865.78
2022-10-29T14:10:45.480Z,98872.50
2022-10-29T14:13:49.528Z,98868.31
2022-10-29T14:17:13.129Z,98848.78
2022-10-29T14:20:27.307Z,98849.44
2022-10-29T14:23:30.980Z,98849.34
2022-10-29T14:26:35.430Z,98843.97
2022-10-29T14:29:38.617Z,98847.50
2022-10-29T14:32:41.848Z,98843.09
2022-10-29T14:35:45.599Z,98853.38
2022-10-29T14:39:04.424Z,98842.72
2022-10-29T14:42:40.226Z,98856.75
2022-10-29T14:45:42.869Z,98859.09
2022-10-29T14:49:22.174Z,98862.81
2022-10-29T14:52:55.260Z,98867.16
2022-10-29T14:56:02.567Z,98866.72
2022-10-29T14:59:13.715Z,98864.47
2022-10-29T15:05:40.822Z,98872.91
2022-10-29T15:08:44.633Z,98862.78
2022-10-29T15:12:03.282Z,98870.44
2022-10-29T15:15:25.929Z,98868.91
2022-10-29T15:18:28.260Z,98867.31
2022-10-29T15:21:32.579Z,98861.91
2022-10-29T15:24:34.963Z,98859.78
2022-10-29T15:27:38.398Z,98864.50
2022-10-29T15:30:40.432Z,98858.69
2022-10-29T15:33:42.684Z,98868.16
2022-10-29T15:36:49.805Z,98851.50
2022-10-29T15:40:10.477Z,98865.63
2022-10-29T15:43:29.905Z,98866.50
2022-10-29T15:46:36.401Z,98864.97
2022-10-29T15:49:38.401Z,98870.59
2022-10-29T15:53:07.971Z,98880.47
2022-10-29T15:56:13.946Z,98871.19
2022-10-29T15:59:19.042Z,98870.06
2022-10-29T16:02:21.221Z,98871.22
2022-10-29T16:05:23.266Z,98870.09
2022-10-29T16:08:28.506Z,98875.38
2022-10-29T16:11:30.590Z,98875.38
2022-10-29T16:14:32.486Z,98872.69
2022-10-29T16:17:34.573Z,98870.91
2022-10-29T16:20:37.177Z,98873.69
2022-10-29T16:23:39.389Z,98872.00
2022-10-29T16:26:41.761Z,98876.00
2022-10-29T16:29:44.224Z,98868.25
2022-10-29T16:32:46.581Z,98867.59
2022-10-29T16:35:48.790Z,98867.97
2022-10-29T16:38:50.860Z,98868.13
2022-10-29T16:41:52.737Z,98865.34
2022-10-29T16:44:54.700Z,98864.75
2022-10-29T16:47:57.785Z,98867.69
2022-10-29T16:51:00.282Z,98864.75
2022-10-29T16:54:02.285Z,98869.44
2022-10-29T16:57:04.211Z,98858.63
2022-10-29T17:00:07.311Z,98864.72
2022-10-29T17:03:12.007Z,98874.59
2022-10-29T17:06:14.872Z,98868.47
2022-10-29T17:09:18.144Z,98858.31
2022-10-29T17:12:22.729Z,98852.28
2022-10-29T17:15:24.759Z,98853.09
2022-10-29T17:18:26.728Z,98862.78
2022-10-29T17:21:33.714Z,98872.50
2022-10-29T17:24:35.610Z,98852.81
2022-10-29T17:27:41.832Z,98853.72
2022-10-29T17:30:43.781Z,98855.72
2022-10-29T17:33:45.910Z,98864.88
2022-10-29T17:36:49.811Z,98871.50
2022-10-29T17:39:51.845Z,98875.59
2022-10-29T17:42:54.185Z,98874.50
2022-10-29T17:46:00.491Z,98872.56
2022-10-29T17:49:03.032Z,98875.59
2022-10-29T17:52:05.473Z,98878.63
2022-10-29T17:55:08.845Z,98876.09
2022-10-29T17:58:15.459Z,98879.41
2022-10-29T18:01:22.632Z,98888.84
2022-10-29T18:04:24.638Z,98891.38
2022-10-29T18:07:26.625Z,98883.63
2022-10-29T18:10:29.163Z,98878.06
2022-10-29T18:13:33.136Z,98874.44
2022-10-29T18:16:35.361Z,98876.09
2022-10-29T18:19:37.406Z,98875.25
2022-10-29T18:22:39.402Z,98881.66
2022-10-29T18:25:41.284Z,98858.91
2022-10-29T18:28:43.675Z,98856.56
2022-10-29T18:31:47.267Z,98853.78
2022-10-29T18:34:49.499Z,98855.56
2022-10-29T18:37:52.843Z,98850.88
2022-10-29T18:40:56.271Z,98859.81
2022-10-29T18:43:59.467Z,98842.31
2022-10-29T18:47:01.691Z,98838.41
2022-10-29T18:50:03.870Z,98847.28
2022-10-29T18:53:05.886Z,98845.47
2022-10-29T18:56:13.309Z,98836.75
2022-10-29T18:59:15.515Z,98834.19
2022-10-29T19:02:17.572Z,98832.41
2022-10-29T19:05:20.054Z,98826.19
2022-10-29T19:08:22.416Z,98825.38
2022-10-29T19:11:26.047Z,98826.19
2022-10-29T19:14:28.411Z,98831.03
2022-10-29T19:17:30.675Z,98822.19
2022-10-29T19:20:35.722Z,98832.75
2022-10-29T19:23:38.223Z,98832.84
2022-10-29T19:26:40.756Z,98825.66
2022-10-29T19:29:42.661Z,98833.94
2022-10-29T19:32:44.941Z,98831.75
2022-10-29T19:35:46.821Z,98832.88
2022-10-29T19:38:49.204Z,98832.06
2022-10-29T19:41:51.693Z,98832.06
2022-10-29T19:44:56.397Z,98837.00
2022-10-29T19:47:59.262Z,98829.66
2022-10-29T19:51:02.937Z,98830.06
2022-10-29T19:54:07.662Z,98825.63
2022-10-29T19:57:10.275Z,98822.56
2022-10-29T20:00:16.696Z,98826.03
2022-10-29T20:03:19.773Z,98823.84
2022-10-29T20:06:22.011Z,98833.41
2022-10-29T20:09:24.310Z,98829.81
2022-10-29T20:12:26.388Z,98827.84
2022-10-29T20:15:28.319Z,98828.13
2022-10-29T20:18:30.458Z,98830.66
2022-10-29T20:21:32.493Z,98827.84
2022-10-29T20:24:34.890Z,98833.66
2022-10-29T20:27:36.890Z,98834.25
2022-10-29T20:30:39.476Z,98826.78
2022-10-29T20:33:42.300Z,98836.22
2022-10-29T20:36:46.767Z,98830.25
2022-10-29T20:39:49.197Z,98828.97
2022-10-29T20:42:51.358Z,98830.66
2022-10-29T20:45:53.493Z,98826.50
2022-10-29T20:48:55.773Z,98834.41
2022-10-29T20:51:58.024Z,98830.13
2022-10-29T20:54:59.909Z,98841.91
2022-10-29T20:58:02.226Z,98848.16
2022-10-29T21:01:08.216Z,98844.97
2022-10-29T21:04:10.215Z,98829.00
2022-10-29T21:07:12.320Z,98823.06
2022-10-29T21:10:14.559Z,98818.09
2022-10-29T21:13:16.783Z,98807.97
2022-10-29T21:16:22.404Z,98806.31
2022-10-29T21:19:26.081Z,98809.53
2022-10-29T21:22:27.894Z,98813.16
2022-10-29T21:25:29.810Z,98814.53
2022-10-29T21:28:32.287Z,98813.00
2022-10-29T21:31:34.281Z,98818.25
2022-10-29T21:34:36.797Z,98815.25
2022-10-29T21:37:39.340Z,98816.94
2022-10-29T21:40:42.263Z,98808.91
2022-10-29T21:43:44.425Z,98804.59
2022-10-29T21:46:46.550Z,98802.94
2022-10-29T21:49:51.982Z,98800.00
2022-10-29T21:52:56.954Z,98785.72
2022-10-29T21:56:01.134Z,98786.13
2022-10-29T21:59:03.207Z,98777.28
2022-10-29T22:02:05.284Z,98782.56
2022-10-29T22:05:07.567Z,98780.88
2022-10-29T22:08:09.607Z,98777.28
2022-10-29T22:11:12.396Z,98785.47
2022-10-29T22:14:14.348Z,98777.28
2022-10-29T22:17:16.350Z,98777.28
2022-10-29T22:20:18.332Z,98766.06
2022-10-29T22:23:20.400Z,98777.28
2022-10-29T22:26:27.378Z,98783.09
2022-10-29T22:29:29.073Z,98768.00
2022-10-29T22:32:31.132Z,98773.66
2022-10-29T22:35:33.162Z,98771.19
2022-10-29T22:38:35.282Z,98766.75
2022-10-29T22:41:37.170Z,98765.75
2022-10-29T22:44:39.021Z,98768.00
2022-10-29T22:47:40.852Z,98777.03
2022-10-29T22:50:42.720Z,98762.44
2022-10-29T22:53:45.835Z,98757.66
2022-10-29T22:56:47.696Z,98760.59
2022-10-29T22:59:49.493Z,98765.31
2022-10-29T23:02:51.347Z,98763.13
2022-10-29T23:05:58.135Z,98752.13
2022-10-29T23:09:01.797Z,98748.09
2022-10-29T23:12:03.812Z,98750.19
2022-10-29T23:15:06.116Z,98753.06
2022-10-29T23:18:07.927Z,98749.75
2022-10-29T23:21:09.972Z,98750.66
2022-10-29T23:24:11.838Z,98752.09
2022-10-29T23:27:13.708Z,98746.72
2022-10-29T23:30:15.489Z,98755.75
2022-10-29T23:33:17.247Z,98749.38
2022-10-29T23:36:20.403Z,98743.28
2022-10-29T23:39:22.210Z,98742.13
2022-10-29T23:42:24.132Z,98742.94
2022-10-29T23:45:25.870Z,98740.47
2022-10-29T23:48:27.858Z,98742.41
2022-10-29T23:51:29.649Z,98747.44
2022-10-29T23:54:31.375Z,98753.81
2022-10-29T23:57:33.298Z,98748.06
